Portada
METAR-TAF:

METAR-TAF

Aeroports :

Lanzhou, Xina

latitud: 36-02N, longitud: 103-52E, altitud: 1518 m

Observació

L'informe es va fer fa 36 minuts, a les 00:00 UTC
Vent 6 kt del Nord-Oest
Temperatura 9°C
Humitat 34%
Pressió 1018 hPa
Visibilitat 10 km o més
sense núvols per sota de 1500 mi sense presència de cumulonimbus.

METAR: ZLLL 170000Z 32003MPS CAVOK 09/M06 Q1018 NOSIG

Hora: 08:36 (00:36 UTC)

Pronòstic

L'informe es va fer fa 3 hores i 28 minuts, a les 21:08 UTC
Pronòstic vàlid del 17 a les 00 UTC al 17 a les 24 UTC
Vent 6 kt del Sud/Sud-Est
Visibilitat 10 km o més
sense núvols per sota de 1500 mi sense presència de cumulonimbus.

TAF: ZLLL 162108Z 1700/1724 15003MPS CAVOK TX24/1709Z TN08/1722Z

Observacions i pronòstics meteorològics de més de 4000 aeroports (METAR i TAF).

Les estacions disponibles són els punts grocs i vermells al mapa.

Posi el ratolí al punt desitjat per veure el nom de l'estació.

Feu clic per veure les observacions i els pronòstics meteorològics.

Per canviar el mapa: feu clic els botons verds amb una creu de color negre per apropar; al botó verd amb un guió per allunyar la imatge; o en les fletxes verdes per a mapes adjacents.


METAR-TAF: